createdAt,value
2018-12-24T00:03:17.125Z,82.17
2018-12-24T00:06:06.865Z,81.72
2018-12-24T00:08:57.483Z,81.91
2018-12-24T00:11:47.046Z,81.54
2018-12-24T00:14:36.767Z,81.87
2018-12-24T00:17:26.241Z,81.55
2018-12-24T00:20:15.706Z,81.69
2018-12-24T00:23:05.967Z,81.20
2018-12-24T00:25:55.454Z,82.02
2018-12-24T00:28:44.914Z,81.61
2018-12-24T00:31:34.762Z,81.58
2018-12-24T00:34:25.071Z,81.21
2018-12-24T00:37:42.367Z,81.27
2018-12-24T00:40:32.619Z,80.47
2018-12-24T00:43:22.345Z,80.80
2018-12-24T00:46:12.353Z,80.67
2018-12-24T00:49:02.278Z,80.41
2018-12-24T00:51:52.052Z,80.62
2018-12-24T00:54:42.571Z,80.34
2018-12-24T00:57:33.048Z,80.15
2018-12-24T01:00:41.963Z,80.24
2018-12-24T01:03:52.014Z,79.81
2018-12-24T01:06:41.978Z,79.71
2018-12-24T01:09:31.481Z,79.57
2018-12-24T01:12:24.621Z,79.49
2018-12-24T01:15:12.824Z,79.16
2018-12-24T01:18:03.857Z,79.47
2018-12-24T01:20:54.080Z,79.05
2018-12-24T01:23:43.786Z,78.78
2018-12-24T01:26:33.912Z,79.01
2018-12-24T01:29:24.059Z,79.37
2018-12-24T01:32:14.295Z,79.33
2018-12-24T01:35:04.691Z,78.95
2018-12-24T01:37:54.448Z,79.17
2018-12-24T01:40:44.262Z,79.33
2018-12-24T01:43:34.260Z,79.00
2018-12-24T01:46:24.266Z,78.86
2018-12-24T01:49:15.002Z,78.86
2018-12-24T01:52:04.752Z,78.84
2018-12-24T01:54:54.912Z,78.59
2018-12-24T01:57:44.900Z,78.37
2018-12-24T02:00:34.661Z,78.90
2018-12-24T02:03:24.916Z,79.21
2018-12-24T02:06:14.909Z,79.60
2018-12-24T02:12:21.156Z,79.89
2018-12-24T02:15:10.894Z,79.90
2018-12-24T02:18:00.579Z,80.44
2018-12-24T02:20:50.515Z,81.00
2018-12-24T02:23:40.752Z,81.45
2018-12-24T02:26:30.506Z,81.14
2018-12-24T02:29:20.997Z,80.57
2018-12-24T02:32:10.710Z,80.96
2018-12-24T02:35:00.784Z,80.25
2018-12-24T02:37:50.528Z,80.17
2018-12-24T02:40:41.355Z,80.19
2018-12-24T02:43:30.812Z,79.68
2018-12-24T02:46:21.235Z,79.65
2018-12-24T02:49:11.321Z,79.98
2018-12-24T02:52:00.792Z,80.14
2018-12-24T02:54:50.791Z,80.88
2018-12-24T02:57:40.870Z,80.74
2018-12-24T03:00:30.826Z,80.87
2018-12-24T03:03:20.556Z,80.79
2018-12-24T03:06:10.427Z,81.34
2018-12-24T03:09:00.150Z,81.87
2018-12-24T03:11:50.469Z,81.63
2018-12-24T03:14:40.687Z,81.72
2018-12-24T03:17:30.889Z,81.44
2018-12-24T03:20:20.423Z,81.79
2018-12-24T03:23:11.215Z,82.34
2018-12-24T03:26:00.932Z,83.48
2018-12-24T03:28:50.900Z,84.79
2018-12-24T03:31:40.602Z,85.56
2018-12-24T03:34:31.814Z,86.19
2018-12-24T03:37:22.034Z,86.66
2018-12-24T03:40:11.855Z,87.31
2018-12-24T03:43:12.486Z,88.17
2018-12-24T03:45:56.250Z,88.28
2018-12-24T03:48:45.984Z,82.40
2018-12-24T03:51:36.043Z,80.14
2018-12-24T03:54:25.514Z,85.35
2018-12-24T03:57:16.384Z,88.65
2018-12-24T04:00:07.151Z,89.57
2018-12-24T04:02:56.589Z,90.07
2018-12-24T04:05:46.063Z,90.77
2018-12-24T04:08:36.315Z,91.18
2018-12-24T04:11:26.026Z,91.28
2018-12-24T04:14:15.765Z,91.52
2018-12-24T04:17:05.218Z,91.61
2018-12-24T04:19:55.419Z,91.49
2018-12-24T04:22:45.389Z,91.64
2018-12-24T04:25:40.436Z,91.68
2018-12-24T04:28:30.238Z,91.49
2018-12-24T04:31:19.897Z,91.69
2018-12-24T04:34:09.601Z,91.58
2018-12-24T04:36:59.315Z,91.61
2018-12-24T04:39:49.085Z,91.77
2018-12-24T04:42:38.527Z,91.96
2018-12-24T04:45:27.997Z,91.53
2018-12-24T04:48:17.948Z,91.20
2018-12-24T04:51:08.374Z,90.84
2018-12-24T04:53:57.822Z,90.58
2018-12-24T04:56:47.284Z,90.55
2018-12-24T04:59:36.744Z,90.23
2018-12-24T05:02:26.203Z,90.22
2018-12-24T05:05:17.098Z,90.03
2018-12-24T05:08:06.582Z,90.12
2018-12-24T05:10:56.397Z,89.79
2018-12-24T05:13:46.259Z,90.03
2018-12-24T05:16:35.729Z,88.87
2018-12-24T05:19:25.699Z,89.27
2018-12-24T05:22:15.978Z,89.31
2018-12-24T05:25:05.571Z,88.77
2018-12-24T05:27:55.256Z,88.78
2018-12-24T05:30:44.983Z,88.62
2018-12-24T05:33:34.665Z,89.14
2018-12-24T05:36:24.664Z,89.28
2018-12-24T05:39:14.116Z,89.46
2018-12-24T05:42:03.572Z,90.06
2018-12-24T05:44:53.257Z,90.26
2018-12-24T05:47:42.715Z,90.90
2018-12-24T05:50:32.407Z,90.92
2018-12-24T05:53:22.087Z,90.08
2018-12-24T05:56:11.809Z,90.08
2018-12-24T05:59:01.535Z,90.09
2018-12-24T06:01:51.718Z,89.39
2018-12-24T06:04:41.396Z,88.37
2018-12-24T06:07:31.457Z,88.83
2018-12-24T06:10:20.886Z,89.37
2018-12-24T06:13:10.578Z,89.60
2018-12-24T06:16:00.849Z,89.85
2018-12-24T06:18:50.294Z,90.07
2018-12-24T06:21:39.992Z,90.25
2018-12-24T06:24:29.796Z,89.89
2018-12-24T06:27:19.254Z,90.06
2018-12-24T06:30:09.761Z,90.52
2018-12-24T06:32:59.461Z,89.74
2018-12-24T06:36:08.776Z,89.73
2018-12-24T06:38:58.681Z,89.73
2018-12-24T06:41:48.479Z,89.63
2018-12-24T06:44:38.249Z,89.53
2018-12-24T06:47:27.964Z,89.80
2018-12-24T06:50:17.669Z,89.86
2018-12-24T06:53:08.141Z,89.73
2018-12-24T06:55:58.083Z,89.92
2018-12-24T06:58:47.565Z,89.79
2018-12-24T07:01:38.102Z,89.99
2018-12-24T07:04:28.213Z,89.94
2018-12-24T07:07:18.130Z,90.26
2018-12-24T07:10:07.744Z,89.93
2018-12-24T07:12:57.948Z,89.78
2018-12-24T07:15:50.509Z,90.17
2018-12-24T07:18:41.009Z,90.19
2018-12-24T07:21:31.291Z,89.51
2018-12-24T07:24:21.708Z,89.08
2018-12-24T07:27:12.068Z,88.65
2018-12-24T07:30:01.910Z,88.69
2018-12-24T07:32:52.208Z,89.04
2018-12-24T07:35:42.168Z,88.81
2018-12-24T07:38:32.973Z,88.87
2018-12-24T07:41:24.013Z,88.87
2018-12-24T07:44:13.805Z,89.28
2018-12-24T07:47:22.854Z,89.57
2018-12-24T07:50:12.310Z,89.71
2018-12-24T07:53:02.598Z,89.61
2018-12-24T07:55:52.344Z,88.75
2018-12-24T07:58:42.358Z,89.03
2018-12-24T08:01:33.105Z,89.02
2018-12-24T08:04:21.891Z,89.13
2018-12-24T08:07:32.627Z,89.31
2018-12-24T08:10:41.700Z,88.73
2018-12-24T08:13:31.170Z,88.54
2018-12-24T08:16:20.937Z,88.72
2018-12-24T08:19:26.005Z,88.77
2018-12-24T08:22:02.596Z,89.16
2018-12-24T08:24:52.632Z,88.86
2018-12-24T08:27:42.080Z,88.93
2018-12-24T08:30:31.809Z,88.79
2018-12-24T08:33:21.579Z,88.71
2018-12-24T08:36:11.076Z,88.22
2018-12-24T08:39:01.000Z,87.79
2018-12-24T08:41:50.692Z,87.86
2018-12-24T08:44:41.855Z,88.08
2018-12-24T08:47:31.862Z,87.73
2018-12-24T08:50:21.568Z,87.66
2018-12-24T08:53:12.847Z,87.61
2018-12-24T08:56:04.128Z,87.53
2018-12-24T08:58:53.707Z,87.75
2018-12-24T09:01:43.168Z,87.73
2018-12-24T09:05:15.234Z,87.88
2018-12-24T09:08:05.029Z,87.04
2018-12-24T09:10:54.553Z,87.66
2018-12-24T09:13:44.257Z,87.84
2018-12-24T09:16:34.011Z,87.62
2018-12-24T09:19:23.692Z,87.71
2018-12-24T09:22:14.542Z,87.72
2018-12-24T09:25:04.697Z,88.21
2018-12-24T09:27:55.623Z,87.37
2018-12-24T09:30:51.870Z,88.46
2018-12-24T09:33:44.746Z,88.36
2018-12-24T09:36:34.699Z,87.81
2018-12-24T09:39:24.127Z,87.50
2018-12-24T09:42:28.177Z,87.77
2018-12-24T09:45:05.806Z,87.82
2018-12-24T09:47:55.877Z,88.17
2018-12-24T09:51:05.315Z,88.08
2018-12-24T09:53:55.880Z,88.57
2018-12-24T09:56:45.602Z,87.58
2018-12-24T09:59:35.942Z,87.61
2018-12-24T10:02:31.852Z,87.41
2018-12-24T10:05:23.493Z,87.17
2018-12-24T10:08:16.720Z,87.44
2018-12-24T10:11:06.455Z,87.85
2018-12-24T10:13:56.947Z,87.03
2018-12-24T10:16:46.909Z,87.10
2018-12-24T10:19:36.608Z,86.98
2018-12-24T10:22:25.385Z,86.76
2018-12-24T10:25:15.125Z,86.83
2018-12-24T10:28:24.014Z,86.73
2018-12-24T10:31:14.546Z,87.53
2018-12-24T10:34:04.784Z,87.16
2018-12-24T10:36:54.481Z,87.71
2018-12-24T10:39:44.389Z,86.89
2018-12-24T10:42:34.348Z,87.16
2018-12-24T10:45:24.293Z,86.93
2018-12-24T10:51:29.928Z,86.82
2018-12-24T10:54:19.835Z,86.12
2018-12-24T10:57:09.497Z,85.76
2018-12-24T10:59:59.615Z,86.25
2018-12-24T11:02:49.752Z,85.86
2018-12-24T11:05:40.417Z,85.33
2018-12-24T11:08:31.400Z,84.81
2018-12-24T11:11:21.236Z,84.44
2018-12-24T11:14:11.818Z,84.44
2018-12-24T11:17:02.049Z,84.65
2018-12-24T11:19:53.717Z,83.87
2018-12-24T11:22:44.063Z,84.68
2018-12-24T11:25:34.307Z,83.50
2018-12-24T11:28:23.790Z,84.11
2018-12-24T11:31:13.624Z,84.30
2018-12-24T11:34:03.342Z,82.88
2018-12-24T11:36:53.532Z,82.40
2018-12-24T11:39:43.787Z,81.91
2018-12-24T11:42:33.711Z,82.09
2018-12-24T11:45:23.429Z,82.53
2018-12-24T11:48:14.548Z,82.34
2018-12-24T11:51:04.369Z,82.40
2018-12-24T11:53:54.653Z,81.86
2018-12-24T11:56:44.608Z,82.12
2018-12-24T11:59:34.074Z,82.49
2018-12-24T12:02:24.327Z,81.97
2018-12-24T12:05:13.784Z,81.47
2018-12-24T12:08:03.552Z,80.56
2018-12-24T12:11:15.991Z,80.41
2018-12-24T12:14:06.101Z,81.00
2018-12-24T12:16:55.903Z,81.15
2018-12-24T12:19:45.673Z,80.53
2018-12-24T12:22:54.602Z,80.11
2018-12-24T12:25:45.181Z,81.01
2018-12-24T12:28:34.899Z,81.61
2018-12-24T12:31:25.235Z,81.73
2018-12-24T12:34:15.028Z,81.93
2018-12-24T12:37:04.524Z,81.41
2018-12-24T12:39:53.979Z,80.87
2018-12-24T12:42:44.240Z,80.84
2018-12-24T12:45:34.377Z,81.93
2018-12-24T12:48:25.587Z,82.14
2018-12-24T12:51:16.315Z,82.52
2018-12-24T12:54:06.706Z,81.92
2018-12-24T12:56:56.439Z,80.38
2018-12-24T12:59:46.640Z,80.41
2018-12-24T13:02:36.381Z,79.46
2018-12-24T13:05:26.093Z,79.86
2018-12-24T13:08:15.837Z,79.18
2018-12-24T13:11:05.534Z,78.71
2018-12-24T13:13:55.253Z,77.54
2018-12-24T13:16:44.717Z,77.55
2018-12-24T13:19:34.514Z,76.57
2018-12-24T13:22:24.473Z,77.00
2018-12-24T13:25:15.716Z,76.58
2018-12-24T13:28:05.674Z,77.32
2018-12-24T13:30:55.131Z,76.78
2018-12-24T13:33:44.603Z,77.38
2018-12-24T13:36:34.602Z,78.08
2018-12-24T13:39:24.100Z,77.59
2018-12-24T13:42:13.771Z,78.14
2018-12-24T13:45:03.677Z,77.35
2018-12-24T13:47:53.288Z,77.33
2018-12-24T13:50:43.054Z,78.32
2018-12-24T13:53:32.756Z,79.01
2018-12-24T13:56:22.766Z,79.16
2018-12-24T13:59:12.446Z,79.39
2018-12-24T14:02:02.183Z,79.19
2018-12-24T14:04:52.485Z,79.32
2018-12-24T14:07:43.060Z,79.24
2018-12-24T14:10:32.534Z,79.04
2018-12-24T14:13:22.523Z,79.49
2018-12-24T14:16:16.742Z,79.65
2018-12-24T14:19:04.941Z,80.05
2018-12-24T14:21:54.912Z,80.54
2018-12-24T14:24:46.483Z,79.44
2018-12-24T14:27:37.028Z,79.79
2018-12-24T14:30:26.486Z,79.63
2018-12-24T14:33:16.225Z,79.73
2018-12-24T14:36:05.932Z,79.06
2018-12-24T14:38:55.679Z,79.79
2018-12-24T14:41:45.624Z,80.40
2018-12-24T14:44:35.587Z,81.64
2018-12-24T14:47:26.095Z,83.33
2018-12-24T14:50:35.855Z,86.52
2018-12-24T14:53:25.811Z,86.52
2018-12-24T14:56:15.270Z,87.61
2018-12-24T14:59:05.564Z,87.89
2018-12-24T15:01:55.512Z,87.95
2018-12-24T15:04:45.449Z,88.15
2018-12-24T15:07:34.905Z,88.00
2018-12-24T15:10:24.845Z,87.81
2018-12-24T15:13:14.544Z,87.07
2018-12-24T15:16:04.314Z,86.84
2018-12-24T15:18:54.548Z,86.42
2018-12-24T15:21:44.013Z,86.79
2018-12-24T15:24:34.605Z,86.79
2018-12-24T15:27:24.077Z,86.29
2018-12-24T15:30:14.050Z,87.10
2018-12-24T15:33:03.754Z,87.32
2018-12-24T15:35:54.318Z,87.39
2018-12-24T15:38:44.259Z,87.70
2018-12-24T15:41:34.668Z,87.77
2018-12-24T15:44:24.354Z,87.77
2018-12-24T15:47:14.386Z,87.36
2018-12-24T15:50:04.153Z,87.03
2018-12-24T15:52:54.702Z,87.40
2018-12-24T15:55:44.161Z,86.86
2018-12-24T15:58:33.629Z,86.31
2018-12-24T16:01:23.868Z,86.02
2018-12-24T16:04:13.880Z,85.66
2018-12-24T16:07:04.043Z,85.43
2018-12-24T16:10:12.729Z,85.48
2018-12-24T16:13:02.199Z,85.48
2018-12-24T16:16:11.645Z,85.81
2018-12-24T16:19:20.801Z,85.82
2018-12-24T16:22:10.540Z,85.82
2018-12-24T16:25:00.358Z,84.65
2018-12-24T16:27:50.397Z,85.29
2018-12-24T16:30:59.064Z,84.59
2018-12-24T16:33:48.770Z,84.59
2018-12-24T16:36:38.240Z,84.34
2018-12-24T16:39:28.225Z,84.66
2018-12-24T16:42:17.944Z,84.23
2018-12-24T16:45:07.815Z,84.15
2018-12-24T16:47:57.538Z,83.96
2018-12-24T16:50:47.046Z,84.10
2018-12-24T16:53:40.546Z,84.60
2018-12-24T16:56:28.673Z,84.98
2018-12-24T16:59:18.389Z,84.61
2018-12-24T17:02:07.918Z,84.69
2018-12-24T17:04:57.437Z,84.65
2018-12-24T17:07:46.911Z,84.46
2018-12-24T17:10:36.372Z,84.62
2018-12-24T17:13:45.361Z,85.44
2018-12-24T17:16:35.587Z,85.44
2018-12-24T17:19:25.033Z,85.56
2018-12-24T17:22:14.500Z,85.38
2018-12-24T17:25:04.290Z,85.11
2018-12-24T17:27:53.755Z,84.62
2018-12-24T17:30:43.481Z,84.76
2018-12-24T17:33:33.240Z,84.97
2018-12-24T17:36:23.740Z,84.81
2018-12-24T17:39:15.366Z,85.56
2018-12-24T17:42:05.169Z,85.31
2018-12-24T17:44:54.870Z,84.84
2018-12-24T17:47:45.000Z,85.08
2018-12-24T17:50:34.477Z,85.06
2018-12-24T17:53:24.238Z,85.28
2018-12-24T17:56:14.183Z,84.94
2018-12-24T17:59:04.222Z,85.39
2018-12-24T18:01:54.060Z,84.92
2018-12-24T18:04:43.774Z,84.90
2018-12-24T18:07:33.504Z,84.90
2018-12-24T18:10:42.428Z,84.85
2018-12-24T18:13:51.403Z,84.98
2018-12-24T18:16:41.538Z,85.24
2018-12-24T18:19:31.295Z,85.24
2018-12-24T18:22:40.500Z,84.45
2018-12-24T18:25:30.224Z,84.45
2018-12-24T18:28:19.927Z,85.18
2018-12-24T18:31:10.136Z,85.01
2018-12-24T18:33:59.611Z,84.77
2018-12-24T18:36:50.024Z,85.08
2018-12-24T18:39:39.492Z,84.71
2018-12-24T18:42:30.053Z,84.28
2018-12-24T18:45:19.575Z,84.22
2018-12-24T18:48:09.310Z,84.41
2018-12-24T18:50:59.036Z,84.72
2018-12-24T18:53:49.315Z,85.12
2018-12-24T18:56:39.666Z,84.49
2018-12-24T18:59:29.137Z,84.26
2018-12-24T19:02:19.102Z,84.80
2018-12-24T19:05:09.302Z,84.48
2018-12-24T19:07:59.018Z,84.77
2018-12-24T19:10:48.747Z,84.84
2018-12-24T19:13:38.222Z,85.51
2018-12-24T19:19:38.597Z,85.13
2018-12-24T19:22:28.338Z,85.00
2018-12-24T19:25:17.806Z,85.57
2018-12-24T19:28:07.772Z,85.76
2018-12-24T19:30:57.753Z,85.72
2018-12-24T19:33:47.928Z,86.06
2018-12-24T19:36:37.391Z,86.65
2018-12-24T19:39:27.436Z,86.68
2018-12-24T19:42:16.875Z,86.54
2018-12-24T19:45:06.877Z,86.41
2018-12-24T19:47:56.859Z,86.84
2018-12-24T19:50:46.550Z,87.31
2018-12-24T19:53:35.999Z,87.44
2018-12-24T19:56:26.039Z,87.61
2018-12-24T19:59:15.518Z,87.77
2018-12-24T20:02:05.284Z,87.31
2018-12-24T20:04:55.691Z,86.95
2018-12-24T20:07:45.455Z,87.42
2018-12-24T20:10:35.430Z,87.17
2018-12-24T20:13:24.928Z,87.13
2018-12-24T20:16:14.386Z,87.32
2018-12-24T20:19:04.081Z,87.14
2018-12-24T20:21:54.274Z,87.22
2018-12-24T20:24:44.166Z,87.36
2018-12-24T20:27:33.887Z,87.24
2018-12-24T20:30:23.862Z,87.11
2018-12-24T20:33:13.840Z,87.32
2018-12-24T20:36:03.335Z,86.75
2018-12-24T20:38:52.807Z,86.42
2018-12-24T20:41:42.756Z,86.20
2018-12-24T20:44:32.858Z,86.01
2018-12-24T20:47:22.967Z,85.59
2018-12-24T20:50:12.841Z,85.19
2018-12-24T20:53:02.781Z,84.76
2018-12-24T20:55:52.508Z,84.58
2018-12-24T20:58:42.247Z,84.79
2018-12-24T21:01:31.790Z,84.39
2018-12-24T21:04:40.717Z,84.81
2018-12-24T21:07:30.412Z,84.81
2018-12-24T21:10:20.232Z,84.29
2018-12-24T21:13:11.531Z,83.89
2018-12-24T21:16:00.977Z,83.96
2018-12-24T21:18:50.431Z,84.38
2018-12-24T21:21:40.755Z,83.92
2018-12-24T21:24:30.310Z,84.12
2018-12-24T21:27:20.022Z,84.24
2018-12-24T21:30:09.833Z,83.77
2018-12-24T21:32:59.283Z,83.94
2018-12-24T21:35:48.751Z,84.23
2018-12-24T21:38:38.224Z,84.35
2018-12-24T21:41:47.630Z,83.86
2018-12-24T21:44:37.899Z,83.86
2018-12-24T21:47:28.510Z,84.20
2018-12-24T21:50:37.199Z,84.59
2018-12-24T21:53:27.432Z,84.59
2018-12-24T21:56:17.612Z,84.73
2018-12-24T21:59:07.335Z,84.43
2018-12-24T22:02:16.758Z,84.71
2018-12-24T22:05:06.395Z,84.71
2018-12-24T22:07:56.659Z,84.71
2018-12-24T22:10:46.127Z,84.68
2018-12-24T22:13:36.358Z,84.79
2018-12-24T22:16:25.841Z,84.82
2018-12-24T22:19:16.018Z,85.00
2018-12-24T22:22:05.854Z,84.94
2018-12-24T22:24:55.385Z,85.41
2018-12-24T22:27:45.432Z,84.63
2018-12-24T22:30:54.122Z,84.31
2018-12-24T22:33:44.104Z,84.31
2018-12-24T22:36:33.575Z,85.00
2018-12-24T22:39:23.318Z,84.70
2018-12-24T22:42:13.028Z,84.29
2018-12-24T22:45:02.809Z,84.43
2018-12-24T22:47:52.804Z,84.94
2018-12-24T22:50:42.852Z,84.79
2018-12-24T22:53:32.814Z,84.51
2018-12-24T22:56:22.646Z,84.88
2018-12-24T22:59:12.399Z,84.80
2018-12-24T23:02:21.413Z,84.75
2018-12-24T23:05:11.202Z,84.75
2018-12-24T23:08:00.772Z,84.57
2018-12-24T23:11:09.707Z,84.40
2018-12-24T23:13:59.146Z,84.40
2018-12-24T23:16:48.904Z,84.16
2018-12-24T23:19:38.647Z,83.92
2018-12-24T23:22:28.366Z,83.89
2018-12-24T23:25:17.830Z,84.57
2018-12-24T23:28:07.315Z,84.80
2018-12-24T23:30:56.784Z,84.63
2018-12-24T23:33:46.535Z,84.74
2018-12-24T23:36:36.509Z,84.74
2018-12-24T23:39:25.966Z,84.00
2018-12-24T23:42:16.433Z,84.34
2018-12-24T23:45:05.983Z,84.25
2018-12-24T23:47:55.936Z,83.99
2018-12-24T23:50:45.403Z,84.42
2018-12-24T23:53:54.887Z,84.09
2018-12-24T23:56:44.419Z,84.09
2018-12-24T23:59:34.130Z,83.99
